sensor_id;sensor_type;location;lat;lon;timestamp;pressure;altitude;pressure_sealevel;temperature;humidity
59158;BME280;44940;55.060;73.168;2022-09-09T00:00:24;101016.28;;;6.85;100.00
59158;BME280;44940;55.060;73.168;2022-09-09T00:02:57;101026.81;;;6.83;100.00
59158;BME280;44940;55.060;73.168;2022-09-09T00:05:31;101026.19;;;6.86;100.00
59158;BME280;44940;55.060;73.168;2022-09-09T00:08:01;100998.09;;;6.75;100.00
59158;BME280;44940;55.060;73.168;2022-09-09T00:10:34;101015.16;;;6.86;100.00
59158;BME280;44940;55.060;73.168;2022-09-09T00:13:15;101020.50;;;6.82;100.00
59158;BME280;44940;55.060;73.168;2022-09-09T00:15:50;101014.28;;;6.77;100.00
59158;BME280;44940;55.060;73.168;2022-09-09T00:18:25;101022.75;;;6.80;100.00
59158;BME280;44940;55.060;73.168;2022-09-09T00:20:59;101020.94;;;6.76;100.00
59158;BME280;44940;55.060;73.168;2022-09-09T00:23:30;101015.03;;;6.68;100.00
59158;BME280;44940;55.060;73.168;2022-09-09T00:26:08;101024.41;;;6.67;100.00
59158;BME280;44940;55.060;73.168;2022-09-09T00:28:41;101019.16;;;6.57;100.00
59158;BME280;44940;55.060;73.168;2022-09-09T00:31:14;101001.84;;;6.43;100.00
59158;BME280;44940;55.060;73.168;2022-09-09T00:33:43;101022.13;;;6.47;100.00
59158;BME280;44940;55.060;73.168;2022-09-09T00:36:13;101007.97;;;6.40;100.00
59158;BME280;44940;55.060;73.168;2022-09-09T00:38:45;101028.38;;;6.39;100.00
59158;BME280;44940;55.060;73.168;2022-09-09T00:41:20;101012.44;;;6.36;100.00
59158;BME280;44940;55.060;73.168;2022-09-09T00:43:56;101018.06;;;6.31;100.00
59158;BME280;44940;55.060;73.168;2022-09-09T00:46:41;101013.50;;;6.26;100.00
59158;BME280;44940;55.060;73.168;2022-09-09T00:49:20;101018.81;;;6.23;100.00
59158;BME280;44940;55.060;73.168;2022-09-09T00:51:56;101016.69;;;6.20;100.00
59158;BME280;44940;55.060;73.168;2022-09-09T00:54:31;101013.72;;;6.16;100.00
59158;BME280;44940;55.060;73.168;2022-09-09T00:57:14;101010.66;;;6.18;100.00
59158;BME280;44940;55.060;73.168;2022-09-09T00:59:48;101000.75;;;6.17;100.00
59158;BME280;44940;55.060;73.168;2022-09-09T01:02:25;100995.38;;;6.12;100.00
59158;BME280;44940;55.060;73.168;2022-09-09T01:04:58;101003.81;;;6.15;100.00
59158;BME280;44940;55.060;73.168;2022-09-09T01:07:29;101015.75;;;6.24;100.00
59158;BME280;44940;55.060;73.168;2022-09-09T01:09:57;101012.69;;;6.26;100.00
59158;BME280;44940;55.060;73.168;2022-09-09T01:12:33;101006.69;;;6.24;100.00
59158;BME280;44940;55.060;73.168;2022-09-09T01:15:08;101011.94;;;6.34;100.00
59158;BME280;44940;55.060;73.168;2022-09-09T01:17:50;101002.81;;;6.25;100.00
59158;BME280;44940;55.060;73.168;2022-09-09T01:20:22;101015.31;;;6.31;100.00
59158;BME280;44940;55.060;73.168;2022-09-09T01:23:15;101005.63;;;6.33;100.00
59158;BME280;44940;55.060;73.168;2022-09-09T01:26:17;101015.09;;;6.41;100.00
59158;BME280;44940;55.060;73.168;2022-09-09T01:28:47;101026.50;;;6.48;100.00
59158;BME280;44940;55.060;73.168;2022-09-09T01:31:19;101023.63;;;6.53;100.00
59158;BME280;44940;55.060;73.168;2022-09-09T01:33:48;101039.91;;;6.63;100.00
59158;BME280;44940;55.060;73.168;2022-09-09T01:36:25;101031.94;;;6.76;100.00
59158;BME280;44940;55.060;73.168;2022-09-09T01:38:55;101031.06;;;6.89;100.00
59158;BME280;44940;55.060;73.168;2022-09-09T01:41:24;101026.44;;;6.98;100.00
59158;BME280;44940;55.060;73.168;2022-09-09T01:44:08;101035.44;;;7.12;100.00
59158;BME280;44940;55.060;73.168;2022-09-09T01:46:37;101034.06;;;7.23;100.00
59158;BME280;44940;55.060;73.168;2022-09-09T01:49:07;101028.25;;;7.25;100.00
59158;BME280;44940;55.060;73.168;2022-09-09T01:51:36;101030.03;;;7.29;100.00
59158;BME280;44940;55.060;73.168;2022-09-09T01:54:08;101035.44;;;7.35;100.00
59158;BME280;44940;55.060;73.168;2022-09-09T01:56:47;101027.69;;;7.37;100.00
59158;BME280;44940;55.060;73.168;2022-09-09T01:59:27;101026.56;;;7.38;100.00
59158;BME280;44940;55.060;73.168;2022-09-09T02:02:10;101038.91;;;7.49;100.00
59158;BME280;44940;55.060;73.168;2022-09-09T02:04:43;101020.75;;;7.48;100.00
59158;BME280;44940;55.060;73.168;2022-09-09T02:07:34;101028.13;;;7.61;100.00
59158;BME280;44940;55.060;73.168;2022-09-09T02:10:11;101000.72;;;7.56;100.00
59158;BME280;44940;55.060;73.168;2022-09-09T02:12:47;101021.22;;;7.72;100.00
59158;BME280;44940;55.060;73.168;2022-09-09T02:15:19;101022.69;;;7.78;100.00
59158;BME280;44940;55.060;73.168;2022-09-09T02:17:52;101020.09;;;7.82;100.00
59158;BME280;44940;55.060;73.168;2022-09-09T02:20:22;101018.50;;;7.89;100.00
59158;BME280;44940;55.060;73.168;2022-09-09T02:23:01;101009.53;;;7.75;100.00
59158;BME280;44940;55.060;73.168;2022-09-09T02:25:30;101031.69;;;7.93;100.00
59158;BME280;44940;55.060;73.168;2022-09-09T02:28:12;101038.53;;;8.04;100.00
59158;BME280;44940;55.060;73.168;2022-09-09T02:30:42;101022.59;;;8.01;100.00
59158;BME280;44940;55.060;73.168;2022-09-09T02:33:17;101023.81;;;8.26;100.00
59158;BME280;44940;55.060;73.168;2022-09-09T02:35:49;101029.09;;;8.79;100.00
59158;BME280;44940;55.060;73.168;2022-09-09T02:38:21;101026.97;;;9.02;100.00
59158;BME280;44940;55.060;73.168;2022-09-09T02:41:06;101002.25;;;9.23;100.00
59158;BME280;44940;55.060;73.168;2022-09-09T02:43:35;101021.50;;;9.57;100.00
59158;BME280;44940;55.060;73.168;2022-09-09T02:46:18;101025.09;;;9.96;100.00
59158;BME280;44940;55.060;73.168;2022-09-09T02:48:59;101033.78;;;10.74;100.00
59158;BME280;44940;55.060;73.168;2022-09-09T02:51:37;101007.16;;;11.48;97.45
59158;BME280;44940;55.060;73.168;2022-09-09T02:54:12;101009.69;;;11.98;91.79
59158;BME280;44940;55.060;73.168;2022-09-09T02:56:49;101013.75;;;12.65;89.06
59158;BME280;44940;55.060;73.168;2022-09-09T02:59:24;101015.41;;;13.34;88.06
59158;BME280;44940;55.060;73.168;2022-09-09T03:01:53;101010.31;;;13.52;85.67
59158;BME280;44940;55.060;73.168;2022-09-09T03:04:20;101013.53;;;13.86;82.83
59158;BME280;44940;55.060;73.168;2022-09-09T03:06:49;71117.31;;;-144.94;100.00
59158;BME280;44940;55.060;73.168;2022-09-09T03:09:19;71117.31;;;-144.94;100.00
59158;BME280;44940;55.060;73.168;2022-09-09T03:11:47;71117.31;;;-144.94;100.00
59158;BME280;44940;55.060;73.168;2022-09-09T03:14:16;71117.31;;;-144.94;100.00
59158;BME280;44940;55.060;73.168;2022-09-09T03:16:45;71117.31;;;-144.94;100.00
59158;BME280;44940;55.060;73.168;2022-09-09T03:19:13;71117.31;;;-144.94;100.00
59158;BME280;44940;55.060;73.168;2022-09-09T03:21:42;101004.69;;;15.86;73.69
59158;BME280;44940;55.060;73.168;2022-09-09T03:24:09;100994.94;;;16.25;73.50
59158;BME280;44940;55.060;73.168;2022-09-09T03:26:36;100995.47;;;16.61;72.64
59158;BME280;44940;55.060;73.168;2022-09-09T03:29:05;71117.31;;;-144.94;100.00
59158;BME280;44940;55.060;73.168;2022-09-09T03:31:33;100995.44;;;16.87;67.91
59158;BME280;44940;55.060;73.168;2022-09-09T03:34:02;100982.03;;;17.04;64.17
59158;BME280;44940;55.060;73.168;2022-09-09T03:36:32;101001.13;;;17.32;64.54
59158;BME280;44940;55.060;73.168;2022-09-09T03:38:59;101000.16;;;17.54;64.38
59158;BME280;44940;55.060;73.168;2022-09-09T03:41:30;101002.44;;;17.75;62.47
59158;BME280;44940;55.060;73.168;2022-09-09T03:43:59;100994.81;;;17.75;64.48
59158;BME280;44940;55.060;73.168;2022-09-09T03:46:30;101002.88;;;17.80;61.03
59158;BME280;44940;55.060;73.168;2022-09-09T03:48:59;100998.25;;;18.02;61.20
59158;BME280;44940;55.060;73.168;2022-09-09T03:51:29;100993.69;;;18.38;57.28
59158;BME280;44940;55.060;73.168;2022-09-09T03:53:57;101000.91;;;18.39;55.64
59158;BME280;44940;55.060;73.168;2022-09-09T03:56:26;101000.06;;;18.32;54.36
59158;BME280;44940;55.060;73.168;2022-09-09T03:58:54;100991.59;;;18.25;53.41
59158;BME280;44940;55.060;73.168;2022-09-09T04:01:21;100997.81;;;18.55;54.10
59158;BME280;44940;55.060;73.168;2022-09-09T04:03:48;100997.78;;;18.52;52.59
59158;BME280;44940;55.060;73.168;2022-09-09T04:06:17;100995.75;;;18.48;53.17
59158;BME280;44940;55.060;73.168;2022-09-09T04:08:49;101003.91;;;18.68;53.98
59158;BME280;44940;55.060;73.168;2022-09-09T04:11:16;101000.09;;;19.12;52.40
59158;BME280;44940;55.060;73.168;2022-09-09T04:13:45;101002.88;;;19.01;53.35
59158;BME280;44940;55.060;73.168;2022-09-09T04:16:13;101001.56;;;18.73;49.02
59158;BME280;44940;55.060;73.168;2022-09-09T04:18:42;100994.03;;;18.99;49.36
59158;BME280;44940;55.060;73.168;2022-09-09T04:21:10;101000.06;;;19.08;48.35
59158;BME280;44940;55.060;73.168;2022-09-09T04:23:39;101001.28;;;19.07;48.20
59158;BME280;44940;55.060;73.168;2022-09-09T04:26:08;101007.28;;;19.05;48.00
59158;BME280;44940;55.060;73.168;2022-09-09T04:28:36;101008.88;;;18.96;50.26
59158;BME280;44940;55.060;73.168;2022-09-09T04:31:08;101000.94;;;19.23;49.21
59158;BME280;44940;55.060;73.168;2022-09-09T04:33:39;101001.38;;;19.35;47.13
59158;BME280;44940;55.060;73.168;2022-09-09T04:36:06;101000.16;;;19.29;47.49
59158;BME280;44940;55.060;73.168;2022-09-09T04:38:33;101001.66;;;18.98;45.89
59158;BME280;44940;55.060;73.168;2022-09-09T04:41:02;100991.63;;;19.04;46.12
59158;BME280;44940;55.060;73.168;2022-09-09T04:43:31;100997.25;;;19.04;46.51
59158;BME280;44940;55.060;73.168;2022-09-09T04:45:58;100978.06;;;19.28;46.79
59158;BME280;44940;55.060;73.168;2022-09-09T04:48:26;100993.72;;;19.25;48.04
59158;BME280;44940;55.060;73.168;2022-09-09T04:50:55;100993.72;;;19.25;48.04
59158;BME280;44940;55.060;73.168;2022-09-09T04:53:22;100993.72;;;19.25;48.04
59158;BME280;44940;55.060;73.168;2022-09-09T04:55:50;100989.75;;;17.54;47.51
59158;BME280;44940;55.060;73.168;2022-09-09T04:58:17;100985.53;;;17.30;48.21
59158;BME280;44940;55.060;73.168;2022-09-09T05:00:46;100982.03;;;17.04;48.79
59158;BME280;44940;55.060;73.168;2022-09-09T05:03:13;100988.78;;;16.69;48.87
59158;BME280;44940;55.060;73.168;2022-09-09T05:05:41;100982.97;;;16.25;49.60
59158;BME280;44940;55.060;73.168;2022-09-09T05:08:09;100965.88;;;15.81;50.46
59158;BME280;44940;55.060;73.168;2022-09-09T05:10:38;100949.47;;;15.56;51.59
59158;BME280;44940;55.060;73.168;2022-09-09T05:13:05;100981.59;;;15.66;52.70
59158;BME280;44940;55.060;73.168;2022-09-09T05:15:33;100969.47;;;15.58;53.24
59158;BME280;44940;55.060;73.168;2022-09-09T05:18:04;100970.25;;;15.36;54.07
59158;BME280;44940;55.060;73.168;2022-09-09T05:20:32;100963.50;;;15.37;53.93
59158;BME280;44940;55.060;73.168;2022-09-09T05:23:01;100951.34;;;15.26;54.20
59158;BME280;44940;55.060;73.168;2022-09-09T05:25:31;100949.00;;;15.28;55.10
59158;BME280;44940;55.060;73.168;2022-09-09T05:27:58;100957.56;;;15.19;54.47
59158;BME280;44940;55.060;73.168;2022-09-09T05:30:26;100951.94;;;15.15;54.39
59158;BME280;44940;55.060;73.168;2022-09-09T05:32:56;100947.41;;;15.07;54.23
59158;BME280;44940;55.060;73.168;2022-09-09T05:35:24;100932.56;;;15.03;54.05
59158;BME280;44940;55.060;73.168;2022-09-09T05:37:52;100960.56;;;15.07;53.76
59158;BME280;44940;55.060;73.168;2022-09-09T05:40:19;100961.00;;;15.09;53.60
59158;BME280;44940;55.060;73.168;2022-09-09T05:42:48;100973.25;;;15.04;53.37
59158;BME280;44940;55.060;73.168;2022-09-09T05:45:16;100996.81;;;14.87;53.06
59158;BME280;44940;55.060;73.168;2022-09-09T05:47:43;100991.59;;;14.67;53.46
59158;BME280;44940;55.060;73.168;2022-09-09T05:50:12;100999.22;;;14.50;54.47
59158;BME280;44940;55.060;73.168;2022-09-09T05:52:42;100997.97;;;14.32;57.87
59158;BME280;44940;55.060;73.168;2022-09-09T05:55:11;101007.13;;;14.33;61.32
59158;BME280;44940;55.060;73.168;2022-09-09T05:57:38;100992.94;;;14.22;65.75
59158;BME280;44940;55.060;73.168;2022-09-09T06:00:07;100961.47;;;14.21;63.69
59158;BME280;44940;55.060;73.168;2022-09-09T06:02:40;100967.47;;;14.39;64.27
59158;BME280;44940;55.060;73.168;2022-09-09T06:05:10;100964.53;;;14.32;64.48
59158;BME280;44940;55.060;73.168;2022-09-09T06:07:37;100966.34;;;14.60;65.50
59158;BME280;44940;55.060;73.168;2022-09-09T06:10:11;100933.75;;;14.83;62.52
59158;BME280;44940;55.060;73.168;2022-09-09T06:12:40;100941.97;;;15.37;61.67
59158;BME280;44940;55.060;73.168;2022-09-09T06:15:08;100947.41;;;15.72;59.33
59158;BME280;44940;55.060;73.168;2022-09-09T06:17:36;100938.94;;;15.92;58.27
59158;BME280;44940;55.060;73.168;2022-09-09T06:20:03;100937.97;;;16.07;58.86
59158;BME280;44940;55.060;73.168;2022-09-09T06:22:32;100935.50;;;16.02;57.16
59158;BME280;44940;55.060;73.168;2022-09-09T06:25:00;100923.44;;;15.98;56.95
59158;BME280;44940;55.060;73.168;2022-09-09T06:27:30;100928.19;;;15.94;53.83
59158;BME280;44940;55.060;73.168;2022-09-09T06:29:58;100925.50;;;16.01;54.50
59158;BME280;44940;55.060;73.168;2022-09-09T06:32:25;100924.09;;;16.14;54.72
59158;BME280;44940;55.060;73.168;2022-09-09T06:34:55;100908.72;;;16.27;54.77
59158;BME280;44940;55.060;73.168;2022-09-09T06:37:22;100904.72;;;16.28;54.56
59158;BME280;44940;55.060;73.168;2022-09-09T06:39:51;100907.44;;;16.21;52.42
59158;BME280;44940;55.060;73.168;2022-09-09T06:42:19;100900.88;;;16.10;52.08
59158;BME280;44940;55.060;73.168;2022-09-09T06:44:50;100884.66;;;15.93;52.88
59158;BME280;44940;55.060;73.168;2022-09-09T06:47:33;100894.16;;;16.15;52.54
59158;BME280;44940;55.060;73.168;2022-09-09T06:50:01;100877.00;;;16.16;52.13
59158;BME280;44940;55.060;73.168;2022-09-09T06:52:32;100872.28;;;16.20;52.31
59158;BME280;44940;55.060;73.168;2022-09-09T06:55:01;100870.34;;;16.58;51.86
59158;BME280;44940;55.060;73.168;2022-09-09T06:57:30;71117.31;;;-144.94;100.00
59158;BME280;44940;55.060;73.168;2022-09-09T06:59:59;71117.31;;;-144.94;100.00
59158;BME280;44940;55.060;73.168;2022-09-09T07:02:26;100870.34;;;16.58;51.86
59158;BME280;44940;55.060;73.168;2022-09-09T07:04:54;100849.69;;;17.47;48.82
59158;BME280;44940;55.060;73.168;2022-09-09T07:07:21;71117.31;;;-144.94;100.00
59158;BME280;44940;55.060;73.168;2022-09-09T07:09:48;71117.31;;;-144.94;100.00
59158;BME280;44940;55.060;73.168;2022-09-09T07:12:16;71117.31;;;-144.94;100.00
59158;BME280;44940;55.060;73.168;2022-09-09T07:14:50;71117.31;;;-144.94;100.00
59158;BME280;44940;55.060;73.168;2022-09-09T07:17:19;100849.69;;;17.47;48.82
59158;BME280;44940;55.060;73.168;2022-09-09T07:19:46;100814.63;;;17.68;44.45
59158;BME280;44940;55.060;73.168;2022-09-09T07:22:15;100811.00;;;17.67;45.69
59158;BME280;44940;55.060;73.168;2022-09-09T07:24:43;100809.09;;;17.75;45.21
59158;BME280;44940;55.060;73.168;2022-09-09T07:27:12;100805.97;;;17.90;46.00
59158;BME280;44940;55.060;73.168;2022-09-09T07:29:39;100791.53;;;17.88;45.77
59158;BME280;44940;55.060;73.168;2022-09-09T07:32:07;100793.09;;;17.79;44.26
59158;BME280;44940;55.060;73.168;2022-09-09T07:34:39;100785.50;;;17.76;43.12
59158;BME280;44940;55.060;73.168;2022-09-09T07:37:06;100781.91;;;17.79;44.01
59158;BME280;44940;55.060;73.168;2022-09-09T07:39:36;100778.31;;;17.82;44.20
59158;BME280;44940;55.060;73.168;2022-09-09T07:42:03;100773.94;;;17.88;42.25
59158;BME280;44940;55.060;73.168;2022-09-09T07:44:31;100773.13;;;17.87;43.02
59158;BME280;44940;55.060;73.168;2022-09-09T07:47:06;100771.19;;;17.95;44.23
59158;BME280;44940;55.060;73.168;2022-09-09T07:49:41;100760.00;;;18.06;44.30
59158;BME280;44940;55.060;73.168;2022-09-09T07:52:09;100755.25;;;18.20;45.97
59158;BME280;44940;55.060;73.168;2022-09-09T07:54:40;100753.25;;;18.28;43.98
59158;BME280;44940;55.060;73.168;2022-09-09T07:57:08;100747.25;;;18.30;41.71
59158;BME280;44940;55.060;73.168;2022-09-09T07:59:37;100754.09;;;18.39;41.65
59158;BME280;44940;55.060;73.168;2022-09-09T08:02:05;100738.06;;;18.33;40.93
59158;BME280;44940;55.060;73.168;2022-09-09T08:04:34;100733.66;;;18.35;41.66
59158;BME280;44940;55.060;73.168;2022-09-09T08:07:04;100732.88;;;18.35;41.80
59158;BME280;44940;55.060;73.168;2022-09-09T08:09:38;100733.28;;;18.44;42.10
59158;BME280;44940;55.060;73.168;2022-09-09T08:12:11;100732.47;;;18.40;42.27
59158;BME280;44940;55.060;73.168;2022-09-09T08:14:40;100712.44;;;18.45;42.07
59158;BME280;44940;55.060;73.168;2022-09-09T08:17:07;100712.44;;;18.45;42.07
59158;BME280;44940;55.060;73.168;2022-09-09T08:19:34;100717.28;;;18.55;40.70
59158;BME280;44940;55.060;73.168;2022-09-09T08:22:05;100702.84;;;18.53;41.00
59158;BME280;44940;55.060;73.168;2022-09-09T08:24:34;100675.94;;;18.31;41.26
59158;BME280;44940;55.060;73.168;2022-09-09T08:27:03;100690.41;;;18.43;40.65
59158;BME280;44940;55.060;73.168;2022-09-09T08:29:30;100694.03;;;18.51;40.29
59158;BME280;44940;55.060;73.168;2022-09-09T08:31:58;100688.44;;;18.51;40.19
59158;BME280;44940;55.060;73.168;2022-09-09T08:34:28;100692.41;;;18.50;41.05
59158;BME280;44940;55.060;73.168;2022-09-09T08:36:58;100680.38;;;18.46;41.07
59158;BME280;44940;55.060;73.168;2022-09-09T08:39:34;100679.97;;;18.47;41.76
59158;BME280;44940;55.060;73.168;2022-09-09T08:42:13;100674.41;;;18.51;40.91
59158;BME280;44940;55.060;73.168;2022-09-09T08:45:18;100667.16;;;18.46;40.36
59158;BME280;44940;55.060;73.168;2022-09-09T08:47:56;100685.59;;;18.47;40.14
59158;BME280;44940;55.060;73.168;2022-09-09T08:50:29;100670.75;;;18.47;40.76
59158;BME280;44940;55.060;73.168;2022-09-09T08:53:10;100668.78;;;18.33;40.48
59158;BME280;44940;55.060;73.168;2022-09-09T08:55:45;100672.38;;;18.37;41.58
59158;BME280;44940;55.060;73.168;2022-09-09T08:58:15;100675.94;;;18.31;40.42
59158;BME280;44940;55.060;73.168;2022-09-09T09:01:01;100641.09;;;18.17;38.52
59158;BME280;44940;55.060;73.168;2022-09-09T09:03:37;100659.56;;;18.33;39.17
59158;BME280;44940;55.060;73.168;2022-09-09T09:06:23;100659.91;;;18.31;40.87
59158;BME280;44940;55.060;73.168;2022-09-09T09:09:01;100647.94;;;18.45;38.50
59158;BME280;44940;55.060;73.168;2022-09-09T09:11:36;100647.53;;;18.57;37.05
59158;BME280;44940;55.060;73.168;2022-09-09T09:14:09;100641.13;;;18.39;38.37
59158;BME280;44940;55.060;73.168;2022-09-09T09:16:43;100640.31;;;18.42;37.17
59158;BME280;44940;55.060;73.168;2022-09-09T09:19:14;100647.09;;;18.23;36.91
59158;BME280;44940;55.060;73.168;2022-09-09T09:21:44;100643.09;;;18.31;36.66
59158;BME280;44940;55.060;73.168;2022-09-09T09:24:17;100637.91;;;18.23;36.63
59158;BME280;44940;55.060;73.168;2022-09-09T09:26:47;100641.91;;;18.22;37.62
59158;BME280;44940;55.060;73.168;2022-09-09T09:29:17;100635.09;;;18.23;37.49
59158;BME280;44940;55.060;73.168;2022-09-09T09:31:48;100630.72;;;18.32;37.43
59158;BME280;44940;55.060;73.168;2022-09-09T09:34:18;100623.88;;;18.30;37.80
59158;BME280;44940;55.060;73.168;2022-09-09T09:36:54;100612.66;;;18.15;37.57
59158;BME280;44940;55.060;73.168;2022-09-09T09:39:26;100610.63;;;18.12;38.55
59158;BME280;44940;55.060;73.168;2022-09-09T09:42:08;100613.03;;;18.07;38.52
59158;BME280;44940;55.060;73.168;2022-09-09T09:44:37;100608.22;;;18.07;37.83
59158;BME280;44940;55.060;73.168;2022-09-09T09:47:13;100609.03;;;17.97;38.02
59158;BME280;44940;55.060;73.168;2022-09-09T09:49:52;100615.00;;;17.88;39.23
59158;BME280;44940;55.060;73.168;2022-09-09T09:52:22;100613.75;;;17.72;38.20
59158;BME280;44940;55.060;73.168;2022-09-09T09:54:51;100603.38;;;17.79;39.87
59158;BME280;44940;55.060;73.168;2022-09-09T09:57:26;100596.97;;;17.86;39.38
59158;BME280;44940;55.060;73.168;2022-09-09T10:00:04;100600.97;;;17.78;39.91
59158;BME280;44940;55.060;73.168;2022-09-09T10:02:42;100592.53;;;17.71;40.25
59158;BME280;44940;55.060;73.168;2022-09-09T10:05:17;100586.09;;;17.59;40.75
59158;BME280;44940;55.060;73.168;2022-09-09T10:08:03;100576.03;;;17.51;41.37
59158;BME280;44940;55.060;73.168;2022-09-09T10:10:43;100590.53;;;17.68;41.30
59158;BME280;44940;55.060;73.168;2022-09-09T10:13:20;100588.91;;;17.67;41.06
59158;BME280;44940;55.060;73.168;2022-09-09T10:16:00;100590.94;;;17.70;41.40
59158;BME280;44940;55.060;73.168;2022-09-09T10:18:39;100595.28;;;17.64;41.33
59158;BME280;44940;55.060;73.168;2022-09-09T10:21:20;100576.88;;;17.63;40.49
59158;BME280;44940;55.060;73.168;2022-09-09T10:23:56;100597.69;;;17.65;42.15
59158;BME280;44940;55.060;73.168;2022-09-09T10:26:37;100589.69;;;17.67;41.92
59158;BME280;44940;55.060;73.168;2022-09-09T10:29:36;100587.78;;;17.89;41.94
59158;BME280;44940;55.060;73.168;2022-09-09T10:32:27;100585.00;;;18.07;41.69
59158;BME280;44940;55.060;73.168;2022-09-09T10:35:02;100577.00;;;18.19;40.80
59158;BME280;44940;55.060;73.168;2022-09-09T10:37:49;100582.63;;;18.34;39.73
59158;BME280;44940;55.060;73.168;2022-09-09T10:40:28;100583.00;;;18.29;39.02
59158;BME280;44940;55.060;73.168;2022-09-09T10:43:09;100572.59;;;18.11;37.79
59158;BME280;44940;55.060;73.168;2022-09-09T10:45:49;100583.41;;;18.06;39.33
59158;BME280;44940;55.060;73.168;2022-09-09T10:48:38;100580.63;;;18.16;40.26
59158;BME280;44940;55.060;73.168;2022-09-09T10:51:18;100578.59;;;18.28;38.86
59158;BME280;44940;55.060;73.168;2022-09-09T10:53:56;100580.63;;;18.38;40.22
59158;BME280;44940;55.060;73.168;2022-09-09T10:56:26;100588.25;;;18.37;39.50
59158;BME280;44940;55.060;73.168;2022-09-09T10:58:59;100580.59;;;18.27;40.26
59158;BME280;44940;55.060;73.168;2022-09-09T11:01:33;100564.97;;;18.01;39.71
59158;BME280;44940;55.060;73.168;2022-09-09T11:04:10;100572.16;;;17.81;40.30
59158;BME280;44940;55.060;73.168;2022-09-09T11:06:42;100573.72;;;17.68;40.54
59158;BME280;44940;55.060;73.168;2022-09-09T11:09:15;100569.31;;;17.70;42.63
59158;BME280;44940;55.060;73.168;2022-09-09T11:11:49;100571.78;;;18.00;41.66
59158;BME280;44940;55.060;73.168;2022-09-09T11:14:22;100562.59;;;18.00;42.06
59158;BME280;44940;55.060;73.168;2022-09-09T11:16:58;100577.81;;;18.13;42.21
59158;BME280;44940;55.060;73.168;2022-09-09T11:19:30;100570.19;;;18.20;39.14
59158;BME280;44940;55.060;73.168;2022-09-09T11:22:02;100564.19;;;18.26;38.22
59158;BME280;44940;55.060;73.168;2022-09-09T11:24:35;100567.38;;;18.31;39.33
59158;BME280;44940;55.060;73.168;2022-09-09T11:27:08;100572.59;;;18.47;38.09
59158;BME280;44940;55.060;73.168;2022-09-09T11:32:57;100592.22;;;17.97;37.45
59158;BME280;44940;55.060;73.168;2022-09-09T11:35:40;100581.38;;;17.78;37.83
59158;BME280;44940;55.060;73.168;2022-09-09T11:38:18;100576.03;;;17.44;37.57
59158;BME280;44940;55.060;73.168;2022-09-09T11:40:46;100586.41;;;17.40;37.79
59158;BME280;44940;55.060;73.168;2022-09-09T11:43:24;100578.41;;;17.39;39.06
59158;BME280;44940;55.060;73.168;2022-09-09T11:45:55;100570.38;;;17.34;38.70
59158;BME280;44940;55.060;73.168;2022-09-09T11:48:31;100583.97;;;17.35;39.00
59158;BME280;44940;55.060;73.168;2022-09-09T11:51:01;100586.78;;;17.35;39.01
59158;BME280;44940;55.060;73.168;2022-09-09T11:53:29;100583.22;;;17.38;39.07
59158;BME280;44940;55.060;73.168;2022-09-09T11:56:01;100589.97;;;17.34;38.67
59158;BME280;44940;55.060;73.168;2022-09-09T11:58:36;100579.56;;;17.34;39.16
59158;BME280;44940;55.060;73.168;2022-09-09T12:01:25;100590.38;;;17.32;39.79
59158;BME280;44940;55.060;73.168;2022-09-09T12:04:15;100591.13;;;17.22;40.36
59158;BME280;44940;55.060;73.168;2022-09-09T12:06:44;100593.06;;;17.07;40.90
59158;BME280;44940;55.060;73.168;2022-09-09T12:09:19;100587.72;;;16.84;42.58
59158;BME280;44940;55.060;73.168;2022-09-09T12:11:50;100593.75;;;16.93;42.13
59158;BME280;44940;55.060;73.168;2022-09-09T12:14:22;100602.09;;;16.83;41.14
59158;BME280;44940;55.060;73.168;2022-09-09T12:16:50;100594.13;;;16.85;41.46
59158;BME280;44940;55.060;73.168;2022-09-09T12:19:22;100580.84;;;16.75;41.45
59158;BME280;44940;55.060;73.168;2022-09-09T12:21:57;100579.66;;;16.72;41.26
59158;BME280;44940;55.060;73.168;2022-09-09T12:24:32;100598.84;;;16.77;41.71
59158;BME280;44940;55.060;73.168;2022-09-09T12:27:07;100597.25;;;16.76;42.40
59158;BME280;44940;55.060;73.168;2022-09-09T12:29:44;100586.09;;;16.80;42.43
59158;BME280;44940;55.060;73.168;2022-09-09T12:32:16;100584.50;;;16.79;42.70
59158;BME280;44940;55.060;73.168;2022-09-09T12:34:50;100586.06;;;16.76;42.59
59158;BME280;44940;55.060;73.168;2022-09-09T12:37:31;100594.03;;;16.74;42.35
59158;BME280;44940;55.060;73.168;2022-09-09T12:40:02;100588.34;;;16.60;42.78
59158;BME280;44940;55.060;73.168;2022-09-09T12:42:30;100591.63;;;16.69;43.20
59158;BME280;44940;55.060;73.168;2022-09-09T12:45:01;100588.41;;;16.67;43.49
59158;BME280;44940;55.060;73.168;2022-09-09T12:47:37;100597.91;;;16.59;44.57
59158;BME280;44940;55.060;73.168;2022-09-09T12:50:18;100593.03;;;16.49;44.39
59158;BME280;44940;55.060;73.168;2022-09-09T12:52:49;100594.22;;;16.48;44.58
59158;BME280;44940;55.060;73.168;2022-09-09T12:55:19;100572.94;;;16.36;44.78
59158;BME280;44940;55.060;73.168;2022-09-09T12:57:48;100599.41;;;16.46;44.83
59158;BME280;44940;55.060;73.168;2022-09-09T13:00:19;100605.38;;;16.41;44.64
59158;BME280;44940;55.060;73.168;2022-09-09T13:02:50;100609.28;;;16.32;44.40
59158;BME280;44940;55.060;73.168;2022-09-09T13:05:22;100610.38;;;16.21;45.09
59158;BME280;44940;55.060;73.168;2022-09-09T13:07:49;100613.06;;;16.10;45.21